sensor_id;sensor_type;location;lat;lon;timestamp;temperature;humidity
5786;DHT22;2919;48.630;9.000;2023-02-27T00:02:10;-2.70;98.70
5786;DHT22;2919;48.630;9.000;2023-02-27T00:04:36;-2.60;98.70
5786;DHT22;2919;48.630;9.000;2023-02-27T00:07:02;-2.60;98.60
5786;DHT22;2919;48.630;9.000;2023-02-27T00:09:28;-2.60;98.70
5786;DHT22;2919;48.630;9.000;2023-02-27T00:11:53;-2.60;98.70
5786;DHT22;2919;48.630;9.000;2023-02-27T00:14:19;-2.60;98.70
5786;DHT22;2919;48.630;9.000;2023-02-27T00:16:45;-2.60;98.80
5786;DHT22;2919;48.630;9.000;2023-02-27T00:19:10;-2.60;98.90
5786;DHT22;2919;48.630;9.000;2023-02-27T00:21:36;-2.50;98.80
5786;DHT22;2919;48.630;9.000;2023-02-27T00:24:02;-2.50;98.70
5786;DHT22;2919;48.630;9.000;2023-02-27T00:26:28;-2.50;98.70
5786;DHT22;2919;48.630;9.000;2023-02-27T00:28:54;-2.50;98.70
5786;DHT22;2919;48.630;9.000;2023-02-27T00:31:19;-2.50;98.80
5786;DHT22;2919;48.630;9.000;2023-02-27T00:33:45;-2.60;98.80
5786;DHT22;2919;48.630;9.000;2023-02-27T00:36:11;-2.60;99.30
5786;DHT22;2919;48.630;9.000;2023-02-27T00:38:37;-2.60;99.00
5786;DHT22;2919;48.630;9.000;2023-02-27T00:41:02;-2.60;99.10
5786;DHT22;2919;48.630;9.000;2023-02-27T00:43:28;-2.70;99.10
5786;DHT22;2919;48.630;9.000;2023-02-27T00:45:53;-2.60;99.30
5786;DHT22;2919;48.630;9.000;2023-02-27T00:48:19;-2.60;99.20
5786;DHT22;2919;48.630;9.000;2023-02-27T00:50:45;-2.70;99.30
5786;DHT22;2919;48.630;9.000;2023-02-27T00:53:10;-2.70;99.30
5786;DHT22;2919;48.630;9.000;2023-02-27T00:55:36;-2.70;99.50
5786;DHT22;2919;48.630;9.000;2023-02-27T00:58:02;-2.70;99.50
5786;DHT22;2919;48.630;9.000;2023-02-27T01:00:27;-2.70;99.60
5786;DHT22;2919;48.630;9.000;2023-02-27T01:02:53;-2.60;99.50
5786;DHT22;2919;48.630;9.000;2023-02-27T01:05:19;-2.60;99.50
5786;DHT22;2919;48.630;9.000;2023-02-27T01:07:45;-2.60;99.50
5786;DHT22;2919;48.630;9.000;2023-02-27T01:10:11;-2.60;99.50
5786;DHT22;2919;48.630;9.000;2023-02-27T01:12:37;-2.50;99.60
5786;DHT22;2919;48.630;9.000;2023-02-27T01:15:04;-2.50;99.50
5786;DHT22;2919;48.630;9.000;2023-02-27T01:17:30;-2.60;99.50
5786;DHT22;2919;48.630;9.000;2023-02-27T01:19:56;-2.60;99.40
5786;DHT22;2919;48.630;9.000;2023-02-27T01:22:21;-2.60;99.50
5786;DHT22;2919;48.630;9.000;2023-02-27T01:24:47;-2.60;99.60
5786;DHT22;2919;48.630;9.000;2023-02-27T01:27:12;-2.70;99.60
5786;DHT22;2919;48.630;9.000;2023-02-27T01:29:38;-2.60;99.60
5786;DHT22;2919;48.630;9.000;2023-02-27T01:32:04;-2.70;99.80
5786;DHT22;2919;48.630;9.000;2023-02-27T01:34:29;-2.70;99.80
5786;DHT22;2919;48.630;9.000;2023-02-27T01:36:55;-2.70;99.80
5786;DHT22;2919;48.630;9.000;2023-02-27T01:39:20;-2.80;99.80
5786;DHT22;2919;48.630;9.000;2023-02-27T01:41:46;-2.80;99.90
5786;DHT22;2919;48.630;9.000;2023-02-27T01:44:13;-2.70;99.90
5786;DHT22;2919;48.630;9.000;2023-02-27T01:46:39;-2.70;99.90
5786;DHT22;2919;48.630;9.000;2023-02-27T01:49:38;-2.70;99.90
5786;DHT22;2919;48.630;9.000;2023-02-27T01:52:03;-2.80;99.90
5786;DHT22;2919;48.630;9.000;2023-02-27T01:54:34;-2.80;99.90
5786;DHT22;2919;48.630;9.000;2023-02-27T01:57:01;-2.80;99.90
5786;DHT22;2919;48.630;9.000;2023-02-27T01:59:31;-2.80;99.90
5786;DHT22;2919;48.630;9.000;2023-02-27T02:01:57;-2.80;99.90
5786;DHT22;2919;48.630;9.000;2023-02-27T02:04:28;-2.80;99.90
5786;DHT22;2919;48.630;9.000;2023-02-27T02:07:01;-2.90;99.90
5786;DHT22;2919;48.630;9.000;2023-02-27T02:09:28;-2.90;99.90
5786;DHT22;2919;48.630;9.000;2023-02-27T02:11:55;-2.90;99.90
5786;DHT22;2919;48.630;9.000;2023-02-27T02:14:21;-2.90;99.90
5786;DHT22;2919;48.630;9.000;2023-02-27T02:17:14;-2.90;99.90
5786;DHT22;2919;48.630;9.000;2023-02-27T02:42:50;-3.10;99.90
5786;DHT22;2919;48.630;9.000;2023-02-27T02:48:32;-3.10;99.90
5786;DHT22;2919;48.630;9.000;2023-02-27T02:53:47;-3.10;99.90
5786;DHT22;2919;48.630;9.000;2023-02-27T02:56:38;-3.10;99.90
5786;DHT22;2919;48.630;9.000;2023-02-27T02:59:13;-3.20;99.90
5786;DHT22;2919;48.630;9.000;2023-02-27T03:01:52;-3.10;99.90
5786;DHT22;2919;48.630;9.000;2023-02-27T03:07:43;-3.10;99.90
5786;DHT22;2919;48.630;9.000;2023-02-27T03:12:20;-3.10;99.90
5786;DHT22;2919;48.630;9.000;2023-02-27T03:15:16;-3.20;99.90
5786;DHT22;2919;48.630;9.000;2023-02-27T03:17:54;-3.10;99.90
5786;DHT22;2919;48.630;9.000;2023-02-27T03:20:30;-3.10;99.90
5786;DHT22;2919;48.630;9.000;2023-02-27T03:23:02;-3.10;99.90
5786;DHT22;2919;48.630;9.000;2023-02-27T03:25:30;-3.20;99.90
5786;DHT22;2919;48.630;9.000;2023-02-27T03:28:03;-3.20;99.90
5786;DHT22;2919;48.630;9.000;2023-02-27T03:30:36;-3.10;99.90
5786;DHT22;2919;48.630;9.000;2023-02-27T03:33:10;-3.10;99.90
5786;DHT22;2919;48.630;9.000;2023-02-27T03:36:24;-3.10;99.90
5786;DHT22;2919;48.630;9.000;2023-02-27T03:41:40;-3.20;99.90
5786;DHT22;2919;48.630;9.000;2023-02-27T03:46:55;-3.20;99.90
5786;DHT22;2919;48.630;9.000;2023-02-27T03:49:21;-3.20;99.90
5786;DHT22;2919;48.630;9.000;2023-02-27T03:51:47;-3.20;99.90
5786;DHT22;2919;48.630;9.000;2023-02-27T03:54:15;-3.20;99.90
5786;DHT22;2919;48.630;9.000;2023-02-27T03:59:22;-3.30;99.90
5786;DHT22;2919;48.630;9.000;2023-02-27T04:01:48;-3.30;99.90
5786;DHT22;2919;48.630;9.000;2023-02-27T04:04:16;-3.30;99.90
5786;DHT22;2919;48.630;9.000;2023-02-27T04:07:47;-3.30;99.90
5786;DHT22;2919;48.630;9.000;2023-02-27T04:13:14;-3.30;99.90
5786;DHT22;2919;48.630;9.000;2023-02-27T04:18:42;-3.30;99.90
5786;DHT22;2919;48.630;9.000;2023-02-27T04:26:41;-3.30;99.90
5786;DHT22;2919;48.630;9.000;2023-02-27T04:32:01;-3.30;99.90
5786;DHT22;2919;48.630;9.000;2023-02-27T04:34:39;-3.30;99.90
5786;DHT22;2919;48.630;9.000;2023-02-27T04:40:04;-3.30;99.90
5786;DHT22;2919;48.630;9.000;2023-02-27T04:42:34;-3.30;99.90
5786;DHT22;2919;48.630;9.000;2023-02-27T04:45:04;-3.30;99.90
5786;DHT22;2919;48.630;9.000;2023-02-27T04:47:35;-3.30;99.90
5786;DHT22;2919;48.630;9.000;2023-02-27T04:50:13;-3.30;99.90
5786;DHT22;2919;48.630;9.000;2023-02-27T04:52:43;-3.40;99.90
5786;DHT22;2919;48.630;9.000;2023-02-27T04:55:26;-3.40;99.90
5786;DHT22;2919;48.630;9.000;2023-02-27T04:58:01;-3.40;99.90
5786;DHT22;2919;48.630;9.000;2023-02-27T05:00:28;-3.40;99.90
5786;DHT22;2919;48.630;9.000;2023-02-27T05:02:59;-3.40;99.90
5786;DHT22;2919;48.630;9.000;2023-02-27T05:05:28;-3.30;99.90
5786;DHT22;2919;48.630;9.000;2023-02-27T05:08:02;-3.30;99.90
5786;DHT22;2919;48.630;9.000;2023-02-27T05:10:37;-3.30;99.90
5786;DHT22;2919;48.630;9.000;2023-02-27T05:13:29;-3.30;99.90
5786;DHT22;2919;48.630;9.000;2023-02-27T05:16:17;-3.40;99.90
5786;DHT22;2919;48.630;9.000;2023-02-27T05:18:44;-3.30;99.90
5786;DHT22;2919;48.630;9.000;2023-02-27T05:24:03;-3.40;99.90
5786;DHT22;2919;48.630;9.000;2023-02-27T05:31:59;-3.40;99.90
5786;DHT22;2919;48.630;9.000;2023-02-27T05:34:34;-3.40;99.90
5786;DHT22;2919;48.630;9.000;2023-02-27T05:37:19;-3.40;99.90
5786;DHT22;2919;48.630;9.000;2023-02-27T05:39:48;-3.40;99.90
5786;DHT22;2919;48.630;9.000;2023-02-27T05:42:31;-3.40;99.90
5786;DHT22;2919;48.630;9.000;2023-02-27T05:45:12;-3.40;99.90
5786;DHT22;2919;48.630;9.000;2023-02-27T05:47:45;-3.40;99.90
5786;DHT22;2919;48.630;9.000;2023-02-27T05:50:17;-3.40;99.90
5786;DHT22;2919;48.630;9.000;2023-02-27T05:52:44;-3.40;99.90
5786;DHT22;2919;48.630;9.000;2023-02-27T05:55:28;-3.50;99.90
5786;DHT22;2919;48.630;9.000;2023-02-27T05:58:00;-3.50;99.90
5786;DHT22;2919;48.630;9.000;2023-02-27T06:00:30;-3.40;99.90
5786;DHT22;2919;48.630;9.000;2023-02-27T06:02:57;-3.40;99.90
5786;DHT22;2919;48.630;9.000;2023-02-27T06:05:24;-3.40;99.90
5786;DHT22;2919;48.630;9.000;2023-02-27T06:07:50;-3.40;99.90
5786;DHT22;2919;48.630;9.000;2023-02-27T06:10:19;-3.40;99.90
5786;DHT22;2919;48.630;9.000;2023-02-27T06:12:45;-3.30;99.90
5786;DHT22;2919;48.630;9.000;2023-02-27T06:15:11;-3.30;99.90
5786;DHT22;2919;48.630;9.000;2023-02-27T06:17:37;-3.40;99.90
5786;DHT22;2919;48.630;9.000;2023-02-27T06:20:04;-3.30;99.90
5786;DHT22;2919;48.630;9.000;2023-02-27T06:22:31;-3.30;99.90
5786;DHT22;2919;48.630;9.000;2023-02-27T06:24:57;-3.30;99.90
5786;DHT22;2919;48.630;9.000;2023-02-27T06:27:22;-3.30;99.90
5786;DHT22;2919;48.630;9.000;2023-02-27T06:29:48;-3.30;99.90
5786;DHT22;2919;48.630;9.000;2023-02-27T06:32:13;-3.30;99.90
5786;DHT22;2919;48.630;9.000;2023-02-27T06:34:39;-3.40;99.90
5786;DHT22;2919;48.630;9.000;2023-02-27T06:37:05;-3.30;99.90
5786;DHT22;2919;48.630;9.000;2023-02-27T06:39:30;-3.30;99.90
5786;DHT22;2919;48.630;9.000;2023-02-27T06:41:57;-3.30;99.90
5786;DHT22;2919;48.630;9.000;2023-02-27T06:44:22;-3.30;99.90
5786;DHT22;2919;48.630;9.000;2023-02-27T06:46:48;-3.30;99.90
5786;DHT22;2919;48.630;9.000;2023-02-27T06:49:13;-3.30;99.90
5786;DHT22;2919;48.630;9.000;2023-02-27T06:51:39;-3.20;99.90
5786;DHT22;2919;48.630;9.000;2023-02-27T06:54:05;-3.30;99.90
5786;DHT22;2919;48.630;9.000;2023-02-27T06:56:30;-3.30;99.90
5786;DHT22;2919;48.630;9.000;2023-02-27T06:58:56;-3.20;99.90
5786;DHT22;2919;48.630;9.000;2023-02-27T07:01:21;-3.10;99.90
5786;DHT22;2919;48.630;9.000;2023-02-27T07:03:49;-3.10;99.90
5786;DHT22;2919;48.630;9.000;2023-02-27T07:06:14;-3.10;99.90
5786;DHT22;2919;48.630;9.000;2023-02-27T07:08:40;-3.10;99.90
5786;DHT22;2919;48.630;9.000;2023-02-27T07:11:05;-3.10;99.90
5786;DHT22;2919;48.630;9.000;2023-02-27T07:13:31;-3.10;99.90
5786;DHT22;2919;48.630;9.000;2023-02-27T07:15:56;-3.00;99.90
5786;DHT22;2919;48.630;9.000;2023-02-27T07:18:22;-3.00;99.90
5786;DHT22;2919;48.630;9.000;2023-02-27T07:20:50;-2.90;99.90
5786;DHT22;2919;48.630;9.000;2023-02-27T07:23:16;-2.80;99.90
5786;DHT22;2919;48.630;9.000;2023-02-27T07:25:42;-2.70;99.90
5786;DHT22;2919;48.630;9.000;2023-02-27T07:28:07;-2.70;99.90
5786;DHT22;2919;48.630;9.000;2023-02-27T07:30:33;-2.60;99.90
5786;DHT22;2919;48.630;9.000;2023-02-27T07:32:58;-2.50;99.90
5786;DHT22;2919;48.630;9.000;2023-02-27T07:35:25;-2.30;99.90
5786;DHT22;2919;48.630;9.000;2023-02-27T07:37:50;-2.10;99.90
5786;DHT22;2919;48.630;9.000;2023-02-27T07:40:16;-2.00;99.90
5786;DHT22;2919;48.630;9.000;2023-02-27T07:42:42;-1.90;99.90
5786;DHT22;2919;48.630;9.000;2023-02-27T07:45:08;-1.80;99.90
5786;DHT22;2919;48.630;9.000;2023-02-27T07:47:34;-1.60;99.90
5786;DHT22;2919;48.630;9.000;2023-02-27T07:50:00;-1.50;99.90
5786;DHT22;2919;48.630;9.000;2023-02-27T07:52:26;-1.30;99.90
5786;DHT22;2919;48.630;9.000;2023-02-27T07:54:52;-1.00;99.90
5786;DHT22;2919;48.630;9.000;2023-02-27T07:57:17;-0.60;99.30
5786;DHT22;2919;48.630;9.000;2023-02-27T07:59:43;-0.20;98.40
5786;DHT22;2919;48.630;9.000;2023-02-27T08:02:10;0.10;97.70
5786;DHT22;2919;48.630;9.000;2023-02-27T08:04:36;0.20;97.30
5786;DHT22;2919;48.630;9.000;2023-02-27T08:07:02;0.70;96.40
5786;DHT22;2919;48.630;9.000;2023-02-27T08:09:27;1.10;95.30
5786;DHT22;2919;48.630;9.000;2023-02-27T08:11:55;1.40;94.50
5786;DHT22;2919;48.630;9.000;2023-02-27T08:14:21;1.60;94.10
5786;DHT22;2919;48.630;9.000;2023-02-27T08:16:47;1.60;93.30
5786;DHT22;2919;48.630;9.000;2023-02-27T08:19:13;1.60;93.40
5786;DHT22;2919;48.630;9.000;2023-02-27T08:21:39;1.70;93.00
5786;DHT22;2919;48.630;9.000;2023-02-27T08:24:05;2.00;92.80
5786;DHT22;2919;48.630;9.000;2023-02-27T08:26:31;2.40;92.00
5786;DHT22;2919;48.630;9.000;2023-02-27T08:28:57;2.30;91.80
5786;DHT22;2919;48.630;9.000;2023-02-27T08:31:22;2.50;91.80
5786;DHT22;2919;48.630;9.000;2023-02-27T08:33:48;2.70;91.10
5786;DHT22;2919;48.630;9.000;2023-02-27T08:36:14;2.90;90.10
5786;DHT22;2919;48.630;9.000;2023-02-27T08:38:39;2.70;90.10
5786;DHT22;2919;48.630;9.000;2023-02-27T08:41:05;2.40;90.60
5786;DHT22;2919;48.630;9.000;2023-02-27T08:43:31;2.40;90.50
5786;DHT22;2919;48.630;9.000;2023-02-27T08:45:56;2.50;90.90
5786;DHT22;2919;48.630;9.000;2023-02-27T08:48:22;2.80;90.70
5786;DHT22;2919;48.630;9.000;2023-02-27T08:50:49;2.70;90.60
5786;DHT22;2919;48.630;9.000;2023-02-27T08:53:15;3.10;89.70
5786;DHT22;2919;48.630;9.000;2023-02-27T08:55:41;3.00;89.70
5786;DHT22;2919;48.630;9.000;2023-02-27T08:58:07;3.10;89.50
5786;DHT22;2919;48.630;9.000;2023-02-27T09:00:33;3.20;88.50
5786;DHT22;2919;48.630;9.000;2023-02-27T09:02:59;3.10;87.60
5786;DHT22;2919;48.630;9.000;2023-02-27T09:05:26;2.80;87.60
5786;DHT22;2919;48.630;9.000;2023-02-27T09:07:51;2.60;87.90
5786;DHT22;2919;48.630;9.000;2023-02-27T09:10:17;2.70;88.20
5786;DHT22;2919;48.630;9.000;2023-02-27T09:12:43;2.80;88.80
5786;DHT22;2919;48.630;9.000;2023-02-27T09:15:09;2.60;88.10
5786;DHT22;2919;48.630;9.000;2023-02-27T09:17:36;2.40;88.60
5786;DHT22;2919;48.630;9.000;2023-02-27T09:20:02;2.40;88.50
5786;DHT22;2919;48.630;9.000;2023-02-27T09:22:29;2.40;88.80
5786;DHT22;2919;48.630;9.000;2023-02-27T09:24:55;2.10;89.10
5786;DHT22;2919;48.630;9.000;2023-02-27T09:27:20;2.10;89.80
5786;DHT22;2919;48.630;9.000;2023-02-27T09:29:48;2.00;90.00
5786;DHT22;2919;48.630;9.000;2023-02-27T09:32:22;2.10;88.80
5786;DHT22;2919;48.630;9.000;2023-02-27T09:34:48;1.90;89.10
5786;DHT22;2919;48.630;9.000;2023-02-27T09:37:14;1.80;90.00
5786;DHT22;2919;48.630;9.000;2023-02-27T09:39:44;1.50;88.40
5786;DHT22;2919;48.630;9.000;2023-02-27T09:42:15;1.30;89.30
5786;DHT22;2919;48.630;9.000;2023-02-27T09:44:46;1.10;89.80
5786;DHT22;2919;48.630;9.000;2023-02-27T09:47:38;1.00;90.50
5786;DHT22;2919;48.630;9.000;2023-02-27T09:50:06;1.00;90.40
5786;DHT22;2919;48.630;9.000;2023-02-27T09:52:34;0.80;90.50
5786;DHT22;2919;48.630;9.000;2023-02-27T09:55:01;0.90;90.70
5786;DHT22;2919;48.630;9.000;2023-02-27T09:57:50;0.90;89.90
5786;DHT22;2919;48.630;9.000;2023-02-27T10:05:43;1.10;88.30
5786;DHT22;2919;48.630;9.000;2023-02-27T10:13:54;1.30;87.50
5786;DHT22;2919;48.630;9.000;2023-02-27T10:16:22;1.30;86.00
5786;DHT22;2919;48.630;9.000;2023-02-27T10:19:01;1.30;85.50
5786;DHT22;2919;48.630;9.000;2023-02-27T10:21:35;1.30;86.90
5786;DHT22;2919;48.630;9.000;2023-02-27T10:26:58;1.60;85.50
5786;DHT22;2919;48.630;9.000;2023-02-27T10:29:30;1.70;84.00
5786;DHT22;2919;48.630;9.000;2023-02-27T10:34:26;1.90;83.70
5786;DHT22;2919;48.630;9.000;2023-02-27T10:36:54;1.90;83.10
5786;DHT22;2919;48.630;9.000;2023-02-27T10:39:21;2.00;82.30
5786;DHT22;2919;48.630;9.000;2023-02-27T10:41:49;1.90;80.40
5786;DHT22;2919;48.630;9.000;2023-02-27T10:44:16;1.90;81.60
5786;DHT22;2919;48.630;9.000;2023-02-27T10:46:43;1.90;83.30
5786;DHT22;2919;48.630;9.000;2023-02-27T10:49:17;2.10;81.60
5786;DHT22;2919;48.630;9.000;2023-02-27T10:51:43;2.00;81.10
5786;DHT22;2919;48.630;9.000;2023-02-27T10:54:24;2.10;80.80
5786;DHT22;2919;48.630;9.000;2023-02-27T10:56:50;1.90;80.70
5786;DHT22;2919;48.630;9.000;2023-02-27T10:59:28;1.70;81.50
5786;DHT22;2919;48.630;9.000;2023-02-27T11:01:58;1.50;80.40
5786;DHT22;2919;48.630;9.000;2023-02-27T11:04:32;1.60;81.10
5786;DHT22;2919;48.630;9.000;2023-02-27T11:06:59;1.70;81.40
5786;DHT22;2919;48.630;9.000;2023-02-27T11:09:31;1.60;80.80
5786;DHT22;2919;48.630;9.000;2023-02-27T11:12:18;1.50;81.70
5786;DHT22;2919;48.630;9.000;2023-02-27T11:14:57;1.50;82.90
5786;DHT22;2919;48.630;9.000;2023-02-27T11:17:31;1.40;82.20
5786;DHT22;2919;48.630;9.000;2023-02-27T11:19:58;1.40;82.60
5786;DHT22;2919;48.630;9.000;2023-02-27T11:22:26;1.50;82.50
5786;DHT22;2919;48.630;9.000;2023-02-27T11:25:16;1.60;81.60
5786;DHT22;2919;48.630;9.000;2023-02-27T11:27:42;1.90;81.60
5786;DHT22;2919;48.630;9.000;2023-02-27T11:30:30;1.80;81.00
5786;DHT22;2919;48.630;9.000;2023-02-27T11:32:58;1.70;80.90
5786;DHT22;2919;48.630;9.000;2023-02-27T11:35:35;1.80;81.30
5786;DHT22;2919;48.630;9.000;2023-02-27T11:38:15;2.10;80.90
5786;DHT22;2919;48.630;9.000;2023-02-27T11:40:55;2.30;80.00
5786;DHT22;2919;48.630;9.000;2023-02-27T11:43:27;2.30;78.60
5786;DHT22;2919;48.630;9.000;2023-02-27T11:46:05;2.20;79.20
5786;DHT22;2919;48.630;9.000;2023-02-27T11:48:41;2.30;79.20
5786;DHT22;2919;48.630;9.000;2023-02-27T11:51:22;2.20;78.40
5786;DHT22;2919;48.630;9.000;2023-02-27T11:56:56;2.10;79.50
5786;DHT22;2919;48.630;9.000;2023-02-27T11:59:55;2.00;79.30
5786;DHT22;2919;48.630;9.000;2023-02-27T12:07:53;2.20;79.10
5786;DHT22;2919;48.630;9.000;2023-02-27T12:10:23;2.40;80.00
5786;DHT22;2919;48.630;9.000;2023-02-27T12:12:55;2.80;78.50
5786;DHT22;2919;48.630;9.000;2023-02-27T12:18:20;2.80;77.10
5786;DHT22;2919;48.630;9.000;2023-02-27T12:21:03;2.50;78.20
5786;DHT22;2919;48.630;9.000;2023-02-27T12:23:33;2.50;77.30
5786;DHT22;2919;48.630;9.000;2023-02-27T12:28:56;2.60;78.50
5786;DHT22;2919;48.630;9.000;2023-02-27T12:36:27;2.90;77.20
5786;DHT22;2919;48.630;9.000;2023-02-27T12:38:53;2.80;78.20
5786;DHT22;2919;48.630;9.000;2023-02-27T12:49:46;2.60;78.60
5786;DHT22;2919;48.630;9.000;2023-02-27T12:52:28;2.60;76.90
5786;DHT22;2919;48.630;9.000;2023-02-27T12:55:19;2.50;76.40
5786;DHT22;2919;48.630;9.000;2023-02-27T13:00:27;1.80;78.10
5786;DHT22;2919;48.630;9.000;2023-02-27T13:16:55;2.90;78.80
5786;DHT22;2919;48.630;9.000;2023-02-27T13:21:59;3.00;77.20
5786;DHT22;2919;48.630;9.000;2023-02-27T13:24:28;2.90;77.70
5786;DHT22;2919;48.630;9.000;2023-02-27T13:27:02;2.50;77.30
5786;DHT22;2919;48.630;9.000;2023-02-27T13:29:42;2.40;75.60
5786;DHT22;2919;48.630;9.000;2023-02-27T13:34:54;2.40;78.20
5786;DHT22;2919;48.630;9.000;2023-02-27T13:37:21;2.50;78.40
5786;DHT22;2919;48.630;9.000;2023-02-27T13:44:56;2.60;78.50
5786;DHT22;2919;48.630;9.000;2023-02-27T13:49:59;2.50;78.90
5786;DHT22;2919;48.630;9.000;2023-02-27T13:52:30;2.50;77.40
5786;DHT22;2919;48.630;9.000;2023-02-27T13:54:56;2.50;76.40
5786;DHT22;2919;48.630;9.000;2023-02-27T13:57:24;2.40;78.00
5786;DHT22;2919;48.630;9.000;2023-02-27T14:02:39;2.40;77.30
5786;DHT22;2919;48.630;9.000;2023-02-27T14:05:08;2.40;77.10
5786;DHT22;2919;48.630;9.000;2023-02-27T14:07:59;2.30;77.10
5786;DHT22;2919;48.630;9.000;2023-02-27T14:10:27;2.20;78.50
5786;DHT22;2919;48.630;9.000;2023-02-27T14:12:54;2.20;77.80
5786;DHT22;2919;48.630;9.000;2023-02-27T14:17:54;2.00;79.10
5786;DHT22;2919;48.630;9.000;2023-02-27T14:23:20;2.10;79.40
5786;DHT22;2919;48.630;9.000;2023-02-27T14:25:57;2.10;79.20
5786;DHT22;2919;48.630;9.000;2023-02-27T14:28:48;2.20;78.50
5786;DHT22;2919;48.630;9.000;2023-02-27T14:31:27;2.20;77.80
5786;DHT22;2919;48.630;9.000;2023-02-27T14:33:54;2.10;77.90
5786;DHT22;2919;48.630;9.000;2023-02-27T14:36:28;2.10;78.80
5786;DHT22;2919;48.630;9.000;2023-02-27T14:38:56;2.00;79.20
5786;DHT22;2919;48.630;9.000;2023-02-27T14:44:39;2.00;78.30
5786;DHT22;2919;48.630;9.000;2023-02-27T14:47:15;2.10;79.00
5786;DHT22;2919;48.630;9.000;2023-02-27T14:49:45;2.20;77.50
5786;DHT22;2919;48.630;9.000;2023-02-27T14:52:19;2.20;78.20
5786;DHT22;2919;48.630;9.000;2023-02-27T14:54:45;2.20;78.90
5786;DHT22;2919;48.630;9.000;2023-02-27T14:57:21;2.10;80.00
5786;DHT22;2919;48.630;9.000;2023-02-27T14:59:52;2.20;78.80
5786;DHT22;2919;48.630;9.000;2023-02-27T15:02:23;1.90;77.10
5786;DHT22;2919;48.630;9.000;2023-02-27T15:07:28;1.90;78.50
5786;DHT22;2919;48.630;9.000;2023-02-27T15:10:04;2.00;78.80
5786;DHT22;2919;48.630;9.000;2023-02-27T15:12:33;2.00;79.70
5786;DHT22;2919;48.630;9.000;2023-02-27T15:15:02;2.00;79.30
5786;DHT22;2919;48.630;9.000;2023-02-27T15:17:40;2.00;78.60
5786;DHT22;2919;48.630;9.000;2023-02-27T15:20:35;1.90;78.30
5786;DHT22;2919;48.630;9.000;2023-02-27T15:23:23;1.80;77.80
5786;DHT22;2919;48.630;9.000;2023-02-27T15:25:54;1.70;78.90
5786;DHT22;2919;48.630;9.000;2023-02-27T15:28:28;1.60;79.30
5786;DHT22;2919;48.630;9.000;2023-02-27T15:30:56;1.60;79.40
5786;DHT22;2919;48.630;9.000;2023-02-27T15:33:27;1.50;79.70
5786;DHT22;2919;48.630;9.000;2023-02-27T15:35:54;1.50;81.60
5786;DHT22;2919;48.630;9.000;2023-02-27T15:38:28;1.50;81.20
5786;DHT22;2919;48.630;9.000;2023-02-27T15:40:56;1.50;80.30
5786;DHT22;2919;48.630;9.000;2023-02-27T15:43:23;1.50;79.50
5786;DHT22;2919;48.630;9.000;2023-02-27T15:45:50;1.50;80.20
5786;DHT22;2919;48.630;9.000;2023-02-27T15:48:17;1.40;80.30
5786;DHT22;2919;48.630;9.000;2023-02-27T15:50:47;1.40;80.20
5786;DHT22;2919;48.630;9.000;2023-02-27T15:53:17;1.40;80.70
5786;DHT22;2919;48.630;9.000;2023-02-27T15:55:48;1.40;80.80
5786;DHT22;2919;48.630;9.000;2023-02-27T16:00:44;1.30;80.50
5786;DHT22;2919;48.630;9.000;2023-02-27T16:03:13;1.20;80.50
5786;DHT22;2919;48.630;9.000;2023-02-27T16:05:40;1.20;80.50
5786;DHT22;2919;48.630;9.000;2023-02-27T16:08:07;1.20;81.60
5786;DHT22;2919;48.630;9.000;2023-02-27T16:10:41;1.20;81.80
5786;DHT22;2919;48.630;9.000;2023-02-27T16:13:21;1.10;80.30
5786;DHT22;2919;48.630;9.000;2023-02-27T16:18:46;1.10;80.30
5786;DHT22;2919;48.630;9.000;2023-02-27T16:21:20;1.10;81.60
5786;DHT22;2919;48.630;9.000;2023-02-27T16:23:47;1.00;82.20
5786;DHT22;2919;48.630;9.000;2023-02-27T16:26:31;0.90;82.30
5786;DHT22;2919;48.630;9.000;2023-02-27T16:29:19;0.90;81.60
5786;DHT22;2919;48.630;9.000;2023-02-27T16:31:55;0.80;81.90
5786;DHT22;2919;48.630;9.000;2023-02-27T16:34:32;0.70;80.90
5786;DHT22;2919;48.630;9.000;2023-02-27T16:37:01;0.80;80.70
5786;DHT22;2919;48.630;9.000;2023-02-27T16:39:28;0.80;80.00
5786;DHT22;2919;48.630;9.000;2023-02-27T16:41:57;0.70;79.50
5786;DHT22;2919;48.630;9.000;2023-02-27T16:44:23;0.70;80.40
5786;DHT22;2919;48.630;9.000;2023-02-27T16:46:50;0.70;81.00
5786;DHT22;2919;48.630;9.000;2023-02-27T16:51:45;0.60;81.40
5786;DHT22;2919;48.630;9.000;2023-02-27T16:54:10;0.60;81.70
5786;DHT22;2919;48.630;9.000;2023-02-27T16:56:38;0.60;81.60
5786;DHT22;2919;48.630;9.000;2023-02-27T16:59:04;0.60;83.30
5786;DHT22;2919;48.630;9.000;2023-02-27T17:01:29;0.60;80.70
5786;DHT22;2919;48.630;9.000;2023-02-27T17:03:55;0.50;81.80
5786;DHT22;2919;48.630;9.000;2023-02-27T17:06:21;0.50;81.30
5786;DHT22;2919;48.630;9.000;2023-02-27T17:08:46;0.50;81.10
5786;DHT22;2919;48.630;9.000;2023-02-27T17:11:12;0.50;80.10
5786;DHT22;2919;48.630;9.000;2023-02-27T17:13:38;0.40;79.70
5786;DHT22;2919;48.630;9.000;2023-02-27T17:16:05;0.30;79.10
5786;DHT22;2919;48.630;9.000;2023-02-27T17:18:32;0.40;79.70
5786;DHT22;2919;48.630;9.000;2023-02-27T17:21:02;0.40;79.40
5786;DHT22;2919;48.630;9.000;2023-02-27T17:23:28;0.40;79.80
5786;DHT22;2919;48.630;9.000;2023-02-27T17:25:54;0.30;80.50
5786;DHT22;2919;48.630;9.000;2023-02-27T17:28:21;0.30;80.40
5786;DHT22;2919;48.630;9.000;2023-02-27T17:30:47;0.30;80.20
5786;DHT22;2919;48.630;9.000;2023-02-27T17:33:13;0.30;80.10
5786;DHT22;2919;48.630;9.000;2023-02-27T17:35:38;0.30;79.90
5786;DHT22;2919;48.630;9.000;2023-02-27T17:38:04;0.30;79.50
5786;DHT22;2919;48.630;9.000;2023-02-27T17:40:30;0.20;79.20
5786;DHT22;2919;48.630;9.000;2023-02-27T17:42:55;0.20;79.90
5786;DHT22;2919;48.630;9.000;2023-02-27T17:45:21;0.20;79.10
5786;DHT22;2919;48.630;9.000;2023-02-27T17:47:49;0.30;79.20
5786;DHT22;2919;48.630;9.000;2023-02-27T17:50:15;0.20;79.70
5786;DHT22;2919;48.630;9.000;2023-02-27T17:52:41;0.20;80.20
5786;DHT22;2919;48.630;9.000;2023-02-27T17:55:07;0.20;80.30
5786;DHT22;2919;48.630;9.000;2023-02-27T17:57:37;0.10;80.60
5786;DHT22;2919;48.630;9.000;2023-02-27T18:00:04;0.10;79.80
5786;DHT22;2919;48.630;9.000;2023-02-27T18:02:30;0.00;79.60
5786;DHT22;2919;48.630;9.000;2023-02-27T18:04:56;0.10;79.60
5786;DHT22;2919;48.630;9.000;2023-02-27T18:07:23;0.10;78.20
5786;DHT22;2919;48.630;9.000;2023-02-27T18:09:49;0.00;78.80
5786;DHT22;2919;48.630;9.000;2023-02-27T18:12:14;0.00;79.10
5786;DHT22;2919;48.630;9.000;2023-02-27T18:14:40;0.00;79.10
5786;DHT22;2919;48.630;9.000;2023-02-27T18:17:06;0.00;79.10
5786;DHT22;2919;48.630;9.000;2023-02-27T18:19:41;-0.10;78.90
5786;DHT22;2919;48.630;9.000;2023-02-27T18:22:08;-0.10;79.20
5786;DHT22;2919;48.630;9.000;2023-02-27T18:24:34;0.00;79.80
5786;DHT22;2919;48.630;9.000;2023-02-27T18:27:00;-0.10;79.60
5786;DHT22;2919;48.630;9.000;2023-02-27T18:29:25;-0.10;79.70
5786;DHT22;2919;48.630;9.000;2023-02-27T18:31:51;-0.10;79.80
5786;DHT22;2919;48.630;9.000;2023-02-27T18:34:20;-0.20;80.60
5786;DHT22;2919;48.630;9.000;2023-02-27T18:36:46;-0.20;81.30
5786;DHT22;2919;48.630;9.000;2023-02-27T18:39:11;-0.30;80.70
5786;DHT22;2919;48.630;9.000;2023-02-27T18:41:37;-0.30;80.90
5786;DHT22;2919;48.630;9.000;2023-02-27T18:44:04;-0.30;80.70
5786;DHT22;2919;48.630;9.000;2023-02-27T18:46:30;-0.30;80.10
5786;DHT22;2919;48.630;9.000;2023-02-27T18:48:57;-0.30;80.40
5786;DHT22;2919;48.630;9.000;2023-02-27T18:51:23;-0.40;80.60
5786;DHT22;2919;48.630;9.000;2023-02-27T18:53:49;-0.40;80.90
5786;DHT22;2919;48.630;9.000;2023-02-27T18:56:18;-0.50;80.80
5786;DHT22;2919;48.630;9.000;2023-02-27T18:58:44;-0.50;81.10
5786;DHT22;2919;48.630;9.000;2023-02-27T19:01:39;-0.40;80.60
5786;DHT22;2919;48.630;9.000;2023-02-27T19:04:06;-0.40;80.80
5786;DHT22;2919;48.630;9.000;2023-02-27T19:06:40;-0.40;80.60
5786;DHT22;2919;48.630;9.000;2023-02-27T19:09:09;-0.30;80.90
5786;DHT22;2919;48.630;9.000;2023-02-27T19:11:35;-0.40;80.90